sensor_id;sensor_type;location;lat;lon;timestamp;pressure;altitude;pressure_sealevel;temperature;humidity
6425;BME280;12193;42.642;23.384;2022-10-16T00:01:55;95103.75;;;9.44;100.00
6425;BME280;12193;42.642;23.384;2022-10-16T00:04:24;95106.91;;;9.40;100.00
6425;BME280;12193;42.642;23.384;2022-10-16T04:08:30;95196.22;;;6.85;100.00
6425;BME280;12193;42.642;23.384;2022-10-16T04:11:01;95193.84;;;6.92;100.00
6425;BME280;12193;42.642;23.384;2022-10-16T04:13:31;95197.38;;;6.91;100.00
6425;BME280;12193;42.642;23.384;2022-10-16T04:16:00;95196.22;;;6.61;100.00
6425;BME280;12193;42.642;23.384;2022-10-16T04:18:29;95200.75;;;6.59;100.00
6425;BME280;12193;42.642;23.384;2022-10-16T04:21:02;95193.47;;;6.55;100.00
6425;BME280;12193;42.642;23.384;2022-10-16T04:23:34;95197.81;;;6.46;100.00
6425;BME280;12193;42.642;23.384;2022-10-16T04:26:05;95196.97;;;6.38;100.00
6425;BME280;12193;42.642;23.384;2022-10-16T04:28:34;95200.84;;;6.34;100.00
6425;BME280;12193;42.642;23.384;2022-10-16T04:31:04;95196.03;;;6.31;100.00
6425;BME280;12193;42.642;23.384;2022-10-16T04:33:33;95201.06;;;6.56;100.00
6425;BME280;12193;42.642;23.384;2022-10-16T04:36:03;95202.22;;;6.70;100.00
6425;BME280;12193;42.642;23.384;2022-10-16T04:38:35;95211.44;;;6.96;100.00
6425;BME280;12193;42.642;23.384;2022-10-16T04:41:06;95212.22;;;6.89;100.00
6425;BME280;12193;42.642;23.384;2022-10-16T04:43:35;95224.50;;;6.87;100.00
6425;BME280;12193;42.642;23.384;2022-10-16T04:46:05;95219.81;;;6.74;100.00
6425;BME280;12193;42.642;23.384;2022-10-16T04:48:36;95222.06;;;6.77;100.00
6425;BME280;12193;42.642;23.384;2022-10-16T04:51:05;95229.81;;;6.77;100.00
6425;BME280;12193;42.642;23.384;2022-10-16T04:53:37;95231.75;;;6.59;100.00
6425;BME280;12193;42.642;23.384;2022-10-16T04:56:06;95227.06;;;6.63;100.00
6425;BME280;12193;42.642;23.384;2022-10-16T04:58:35;95223.03;;;6.60;100.00
6425;BME280;12193;42.642;23.384;2022-10-16T05:01:04;95234.91;;;6.45;100.00
6425;BME280;12193;42.642;23.384;2022-10-16T05:03:34;95240.72;;;6.47;100.00
6425;BME280;12193;42.642;23.384;2022-10-16T05:06:05;95243.31;;;6.47;100.00
6425;BME280;12193;42.642;23.384;2022-10-16T05:08:37;95252.41;;;6.59;100.00
6425;BME280;12193;42.642;23.384;2022-10-16T05:11:06;95247.38;;;6.58;100.00
6425;BME280;12193;42.642;23.384;2022-10-16T05:13:36;95259.19;;;6.68;100.00
6425;BME280;12193;42.642;23.384;2022-10-16T05:16:05;95257.41;;;6.61;100.00
6425;BME280;12193;42.642;23.384;2022-10-16T05:18:35;95255.81;;;6.68;100.00
6425;BME280;12193;42.642;23.384;2022-10-16T05:21:04;95254.53;;;6.80;100.00
6425;BME280;12193;42.642;23.384;2022-10-16T05:23:34;95255.66;;;6.77;100.00
6425;BME280;12193;42.642;23.384;2022-10-16T05:26:06;95264.53;;;6.83;100.00
6425;BME280;12193;42.642;23.384;2022-10-16T05:28:35;95264.56;;;6.99;100.00
6425;BME280;12193;42.642;23.384;2022-10-16T05:31:04;95257.72;;;6.74;100.00
6425;BME280;12193;42.642;23.384;2022-10-16T05:33:34;95259.22;;;6.92;100.00
6425;BME280;12193;42.642;23.384;2022-10-16T05:36:05;95263.28;;;7.18;100.00
6425;BME280;12193;42.642;23.384;2022-10-16T05:38:34;95265.03;;;7.26;100.00
6425;BME280;12193;42.642;23.384;2022-10-16T05:41:06;95266.50;;;7.36;100.00
6425;BME280;12193;42.642;23.384;2022-10-16T05:43:35;95266.47;;;7.68;100.00
6425;BME280;12193;42.642;23.384;2022-10-16T05:46:05;95264.25;;;7.41;100.00
6425;BME280;12193;42.642;23.384;2022-10-16T05:48:34;95272.13;;;7.72;100.00
6425;BME280;12193;42.642;23.384;2022-10-16T05:51:06;95272.72;;;7.90;100.00
6425;BME280;12193;42.642;23.384;2022-10-16T05:53:37;95277.25;;;8.04;100.00
6425;BME280;12193;42.642;23.384;2022-10-16T05:56:11;95280.25;;;8.23;100.00
6425;BME280;12193;42.642;23.384;2022-10-16T05:58:41;95283.50;;;8.25;100.00
6425;BME280;12193;42.642;23.384;2022-10-16T06:01:13;95290.81;;;8.22;100.00
6425;BME280;12193;42.642;23.384;2022-10-16T06:03:42;95292.91;;;8.64;100.00
6425;BME280;12193;42.642;23.384;2022-10-16T06:06:13;95302.84;;;9.50;100.00
6425;BME280;12193;42.642;23.384;2022-10-16T06:08:44;95300.41;;;11.01;93.72
6425;BME280;12193;42.642;23.384;2022-10-16T06:11:18;95285.00;;;11.41;88.32
6425;BME280;12193;42.642;23.384;2022-10-16T06:13:49;95298.25;;;12.43;83.71
6425;BME280;12193;42.642;23.384;2022-10-16T06:16:19;95304.84;;;13.46;77.55
6425;BME280;12193;42.642;23.384;2022-10-16T06:18:50;95305.44;;;15.21;70.44
6425;BME280;12193;42.642;23.384;2022-10-16T06:21:22;95302.16;;;14.88;68.48
6425;BME280;12193;42.642;23.384;2022-10-16T06:23:52;95300.69;;;15.49;67.78
6425;BME280;12193;42.642;23.384;2022-10-16T06:26:25;95300.81;;;16.58;63.45
6425;BME280;12193;42.642;23.384;2022-10-16T06:28:56;95309.56;;;15.41;65.65
6425;BME280;12193;42.642;23.384;2022-10-16T06:31:26;95307.06;;;15.59;66.74
6425;BME280;12193;42.642;23.384;2022-10-16T06:33:57;95299.31;;;15.70;65.66
6425;BME280;12193;42.642;23.384;2022-10-16T06:36:27;95301.53;;;17.66;56.61
6425;BME280;12193;42.642;23.384;2022-10-16T06:38:56;95306.44;;;18.03;53.41
6425;BME280;12193;42.642;23.384;2022-10-16T06:41:28;95309.91;;;16.37;58.13
6425;BME280;12193;42.642;23.384;2022-10-16T06:43:57;95314.47;;;15.68;61.88
6425;BME280;12193;42.642;23.384;2022-10-16T06:46:28;95315.84;;;16.68;58.97
6425;BME280;12193;42.642;23.384;2022-10-16T06:48:57;95317.09;;;15.93;60.60
6425;BME280;12193;42.642;23.384;2022-10-16T06:51:27;95310.66;;;16.98;58.57
6425;BME280;12193;42.642;23.384;2022-10-16T06:53:58;95322.03;;;16.92;58.42
6425;BME280;12193;42.642;23.384;2022-10-16T06:56:30;95328.09;;;14.96;64.76
6425;BME280;12193;42.642;23.384;2022-10-16T06:59:00;95325.28;;;14.91;67.04
6425;BME280;12193;42.642;23.384;2022-10-16T07:01:30;95328.13;;;14.89;66.44
6425;BME280;12193;42.642;23.384;2022-10-16T07:04:00;95341.72;;;14.35;69.13
6425;BME280;12193;42.642;23.384;2022-10-16T07:06:31;95329.22;;;16.18;63.29
6425;BME280;12193;42.642;23.384;2022-10-16T07:09:04;95340.09;;;16.46;61.00
6425;BME280;12193;42.642;23.384;2022-10-16T07:11:37;95331.94;;;15.44;64.97
6425;BME280;12193;42.642;23.384;2022-10-16T07:16:43;95332.22;;;14.53;68.52
6425;BME280;12193;42.642;23.384;2022-10-16T07:19:13;95334.13;;;16.57;61.02
6425;BME280;12193;42.642;23.384;2022-10-16T07:21:44;95338.44;;;16.27;61.31
6425;BME280;12193;42.642;23.384;2022-10-16T07:24:15;95336.22;;;16.91;59.59
6425;BME280;12193;42.642;23.384;2022-10-16T07:26:47;95339.06;;;17.84;56.05
6425;BME280;12193;42.642;23.384;2022-10-16T07:29:19;95341.16;;;17.17;57.62
6425;BME280;12193;42.642;23.384;2022-10-16T07:31:49;95341.44;;;16.73;59.27
6425;BME280;12193;42.642;23.384;2022-10-16T07:34:19;95347.81;;;17.19;58.25
6425;BME280;12193;42.642;23.384;2022-10-16T07:36:50;95345.91;;;16.24;60.98
6425;BME280;12193;42.642;23.384;2022-10-16T07:39:19;95341.25;;;17.87;55.64
6425;BME280;12193;42.642;23.384;2022-10-16T07:41:52;95345.97;;;17.20;57.41
6425;BME280;12193;42.642;23.384;2022-10-16T07:44:21;95349.31;;;16.73;59.90
6425;BME280;12193;42.642;23.384;2022-10-16T07:46:50;95340.72;;;16.84;59.07
6425;BME280;12193;42.642;23.384;2022-10-16T07:49:19;95343.75;;;16.14;62.04
6425;BME280;12193;42.642;23.384;2022-10-16T07:51:48;95348.09;;;17.47;58.25
6425;BME280;12193;42.642;23.384;2022-10-16T07:54:17;95343.44;;;17.90;55.68
6425;BME280;12193;42.642;23.384;2022-10-16T07:56:46;95348.16;;;17.23;58.44
6425;BME280;12193;42.642;23.384;2022-10-16T07:59:18;95347.94;;;16.88;59.98
6425;BME280;12193;42.642;23.384;2022-10-16T08:01:49;95346.66;;;17.92;55.89
6425;BME280;12193;42.642;23.384;2022-10-16T08:04:18;95348.22;;;17.52;55.00
6425;BME280;12193;42.642;23.384;2022-10-16T08:06:47;95353.41;;;17.59;55.99
6425;BME280;12193;42.642;23.384;2022-10-16T08:09:16;95349.53;;;18.88;52.12
6425;BME280;12193;42.642;23.384;2022-10-16T08:11:45;95358.88;;;16.85;56.66
6425;BME280;12193;42.642;23.384;2022-10-16T08:14:15;95352.75;;;16.73;56.79
6425;BME280;12193;42.642;23.384;2022-10-16T08:16:46;95347.81;;;17.01;56.80
6425;BME280;12193;42.642;23.384;2022-10-16T08:19:15;95343.06;;;17.28;55.90
6425;BME280;12193;42.642;23.384;2022-10-16T08:21:47;95345.56;;;17.05;56.61
6425;BME280;12193;42.642;23.384;2022-10-16T08:24:16;95343.16;;;17.69;54.83
6425;BME280;12193;42.642;23.384;2022-10-16T08:26:45;95347.44;;;16.38;57.80
6425;BME280;12193;42.642;23.384;2022-10-16T08:29:15;95345.06;;;18.43;53.34
6425;BME280;12193;42.642;23.384;2022-10-16T08:31:46;95346.56;;;16.68;56.61
6425;BME280;12193;42.642;23.384;2022-10-16T08:34:16;95333.13;;;17.48;55.05
6425;BME280;12193;42.642;23.384;2022-10-16T08:36:45;95339.56;;;17.34;54.93
6425;BME280;12193;42.642;23.384;2022-10-16T08:39:16;95348.97;;;16.87;56.03
6425;BME280;12193;42.642;23.384;2022-10-16T08:42:15;95335.22;;;18.27;52.30
6425;BME280;12193;42.642;23.384;2022-10-16T08:48:06;95332.91;;;18.99;49.19
6425;BME280;12193;42.642;23.384;2022-10-16T08:50:40;95336.28;;;19.90;48.18
6425;BME280;12193;42.642;23.384;2022-10-16T08:53:15;95326.41;;;19.97;46.36
6425;BME280;12193;42.642;23.384;2022-10-16T08:55:50;95330.53;;;19.49;44.25
6425;BME280;12193;42.642;23.384;2022-10-16T08:58:21;95338.16;;;19.11;46.57
6425;BME280;12193;42.642;23.384;2022-10-16T09:00:54;95341.22;;;19.42;46.30
6425;BME280;12193;42.642;23.384;2022-10-16T09:03:40;95339.09;;;19.56;45.83
6425;BME280;12193;42.642;23.384;2022-10-16T09:06:25;95337.34;;;19.22;45.49
6425;BME280;12193;42.642;23.384;2022-10-16T09:09:09;95342.19;;;19.64;44.44
6425;BME280;12193;42.642;23.384;2022-10-16T09:11:48;95330.03;;;19.63;44.67
6425;BME280;12193;42.642;23.384;2022-10-16T09:14:32;95331.41;;;20.59;41.83
6425;BME280;12193;42.642;23.384;2022-10-16T09:17:17;95335.69;;;19.44;43.41
6425;BME280;12193;42.642;23.384;2022-10-16T09:19:56;95339.78;;;19.00;45.09
6425;BME280;12193;42.642;23.384;2022-10-16T09:22:27;95338.19;;;18.42;46.87
6425;BME280;12193;42.642;23.384;2022-10-16T09:25:00;95348.31;;;18.16;47.39
6425;BME280;12193;42.642;23.384;2022-10-16T09:27:30;95342.41;;;18.32;46.68
6425;BME280;12193;42.642;23.384;2022-10-16T09:29:59;95344.75;;;18.51;46.80
6425;BME280;12193;42.642;23.384;2022-10-16T09:32:29;95337.53;;;19.71;43.01
6425;BME280;12193;42.642;23.384;2022-10-16T09:35:02;95333.78;;;19.39;43.28
6425;BME280;12193;42.642;23.384;2022-10-16T09:37:31;95322.78;;;20.14;40.15
6425;BME280;12193;42.642;23.384;2022-10-16T09:40:01;95322.50;;;19.16;40.10
6425;BME280;12193;42.642;23.384;2022-10-16T09:42:32;95318.47;;;19.13;41.05
6425;BME280;12193;42.642;23.384;2022-10-16T09:45:04;95323.59;;;19.87;40.49
6425;BME280;12193;42.642;23.384;2022-10-16T09:47:39;95320.84;;;20.10;39.49
6425;BME280;12193;42.642;23.384;2022-10-16T09:50:21;95312.19;;;19.98;39.83
6425;BME280;12193;42.642;23.384;2022-10-16T09:53:03;95310.13;;;21.89;36.58
6425;BME280;12193;42.642;23.384;2022-10-16T09:55:33;95314.78;;;22.08;37.71
6425;BME280;12193;42.642;23.384;2022-10-16T09:58:02;95311.38;;;21.87;37.08
6425;BME280;12193;42.642;23.384;2022-10-16T10:00:32;95312.44;;;21.86;36.80
6425;BME280;12193;42.642;23.384;2022-10-16T10:03:01;95311.00;;;21.09;38.26
6425;BME280;12193;42.642;23.384;2022-10-16T10:05:41;95305.72;;;22.04;36.32
6425;BME280;12193;42.642;23.384;2022-10-16T10:08:17;95303.25;;;22.19;37.32
6425;BME280;12193;42.642;23.384;2022-10-16T10:10:48;95304.09;;;20.70;38.76
6425;BME280;12193;42.642;23.384;2022-10-16T10:13:20;95300.16;;;21.10;38.57
6425;BME280;12193;42.642;23.384;2022-10-16T10:15:50;95297.66;;;20.99;37.15
6425;BME280;12193;42.642;23.384;2022-10-16T10:18:21;95292.94;;;21.22;37.65
6425;BME280;12193;42.642;23.384;2022-10-16T10:21:02;95288.19;;;21.67;37.03
6425;BME280;12193;42.642;23.384;2022-10-16T10:23:32;95291.81;;;21.88;37.01
6425;BME280;12193;42.642;23.384;2022-10-16T10:26:06;95294.16;;;22.42;36.22
6425;BME280;12193;42.642;23.384;2022-10-16T10:28:50;95285.50;;;22.98;35.17
6425;BME280;12193;42.642;23.384;2022-10-16T10:31:27;95292.19;;;21.27;37.61
6425;BME280;12193;42.642;23.384;2022-10-16T10:34:01;95286.31;;;19.84;39.57
6425;BME280;12193;42.642;23.384;2022-10-16T10:36:38;95282.97;;;20.70;38.23
6425;BME280;12193;42.642;23.384;2022-10-16T10:39:13;95280.78;;;21.96;36.31
6425;BME280;12193;42.642;23.384;2022-10-16T10:42:16;95291.22;;;19.91;39.05
6425;BME280;12193;42.642;23.384;2022-10-16T10:45:14;95283.91;;;19.82;39.56
6425;BME280;12193;42.642;23.384;2022-10-16T10:47:59;95275.03;;;20.70;38.00
6425;BME280;12193;42.642;23.384;2022-10-16T10:50:39;95273.78;;;20.56;37.09
6425;BME280;12193;42.642;23.384;2022-10-16T10:53:21;95271.72;;;21.92;34.78
6425;BME280;12193;42.642;23.384;2022-10-16T10:55:59;95260.94;;;23.12;32.27
6425;BME280;12193;42.642;23.384;2022-10-16T10:58:56;95258.16;;;23.48;31.46
6425;BME280;12193;42.642;23.384;2022-10-16T11:01:39;95242.78;;;24.90;28.88
6425;BME280;12193;42.642;23.384;2022-10-16T11:04:27;95260.31;;;21.60;30.08
6425;BME280;12193;42.642;23.384;2022-10-16T11:07:04;95243.38;;;23.01;28.80
6425;BME280;12193;42.642;23.384;2022-10-16T11:09:41;95241.53;;;24.37;26.94
6425;BME280;12193;42.642;23.384;2022-10-16T11:12:17;95246.56;;;21.63;29.72
6425;BME280;12193;42.642;23.384;2022-10-16T11:14:52;95251.22;;;19.83;31.93
6425;BME280;12193;42.642;23.384;2022-10-16T11:17:28;95242.94;;;20.24;31.84
6425;BME280;12193;42.642;23.384;2022-10-16T11:20:03;95247.19;;;19.81;33.38
6425;BME280;12193;42.642;23.384;2022-10-16T11:22:38;95247.16;;;20.79;32.02
6425;BME280;12193;42.642;23.384;2022-10-16T11:25:18;95239.47;;;21.95;30.13
6425;BME280;12193;42.642;23.384;2022-10-16T11:27:52;95242.03;;;22.21;30.29
6425;BME280;12193;42.642;23.384;2022-10-16T11:30:25;95243.53;;;22.38;30.19
6425;BME280;12193;42.642;23.384;2022-10-16T11:33:21;95234.59;;;22.49;30.51
6425;BME280;12193;42.642;23.384;2022-10-16T11:35:55;95238.50;;;21.53;32.67
6425;BME280;12193;42.642;23.384;2022-10-16T11:38:31;95232.16;;;23.65;30.39
6425;BME280;12193;42.642;23.384;2022-10-16T11:41:12;95237.19;;;22.86;30.04
6425;BME280;12193;42.642;23.384;2022-10-16T11:43:50;95244.19;;;22.24;30.69
6425;BME280;12193;42.642;23.384;2022-10-16T11:46:23;95239.31;;;20.30;34.15
6425;BME280;12193;42.642;23.384;2022-10-16T11:48:57;95243.22;;;20.44;34.25
6425;BME280;12193;42.642;23.384;2022-10-16T11:51:35;95242.03;;;22.21;31.68
6425;BME280;12193;42.642;23.384;2022-10-16T11:54:10;95229.25;;;22.91;30.45
6425;BME280;12193;42.642;23.384;2022-10-16T11:56:48;95233.91;;;23.20;30.82
6425;BME280;12193;42.642;23.384;2022-10-16T11:59:25;95239.06;;;23.61;30.67
6425;BME280;12193;42.642;23.384;2022-10-16T12:02:15;95224.28;;;24.15;29.32
6425;BME280;12193;42.642;23.384;2022-10-16T12:05:01;95230.00;;;24.92;28.47
6425;BME280;12193;42.642;23.384;2022-10-16T12:07:37;95222.34;;;24.75;29.15
6425;BME280;12193;42.642;23.384;2022-10-16T12:10:19;95227.97;;;24.34;29.51
6425;BME280;12193;42.642;23.384;2022-10-16T12:12:52;95226.63;;;24.26;29.14
6425;BME280;12193;42.642;23.384;2022-10-16T12:15:24;95224.53;;;24.09;29.87
6425;BME280;12193;42.642;23.384;2022-10-16T12:17:54;95227.97;;;24.19;29.60
6425;BME280;12193;42.642;23.384;2022-10-16T12:20:26;95228.97;;;22.82;30.17
6425;BME280;12193;42.642;23.384;2022-10-16T12:22:58;95230.84;;;22.14;30.46
6425;BME280;12193;42.642;23.384;2022-10-16T12:25:30;95232.13;;;22.06;31.48
6425;BME280;12193;42.642;23.384;2022-10-16T12:28:05;95232.09;;;21.01;32.56
6425;BME280;12193;42.642;23.384;2022-10-16T12:30:36;95227.94;;;20.46;33.98
6425;BME280;12193;42.642;23.384;2022-10-16T12:33:15;95237.34;;;20.04;35.07
6425;BME280;12193;42.642;23.384;2022-10-16T12:35:48;95233.25;;;20.13;35.71
6425;BME280;12193;42.642;23.384;2022-10-16T12:38:19;95236.91;;;19.95;36.00
6425;BME280;12193;42.642;23.384;2022-10-16T12:40:57;95227.47;;;20.16;35.31
6425;BME280;12193;42.642;23.384;2022-10-16T12:43:37;95238.69;;;20.06;35.83
6425;BME280;12193;42.642;23.384;2022-10-16T12:46:35;95231.59;;;19.18;36.94
6425;BME280;12193;42.642;23.384;2022-10-16T12:49:17;95235.13;;;19.24;37.36
6425;BME280;12193;42.642;23.384;2022-10-16T12:51:48;95233.44;;;19.79;37.66
6425;BME280;12193;42.642;23.384;2022-10-16T12:54:19;95238.09;;;19.88;37.64
6425;BME280;12193;42.642;23.384;2022-10-16T12:57:04;95241.22;;;19.85;37.86
6425;BME280;12193;42.642;23.384;2022-10-16T12:59:44;95246.63;;;19.79;36.65
6425;BME280;12193;42.642;23.384;2022-10-16T13:02:43;95248.88;;;19.54;37.74
6425;BME280;12193;42.642;23.384;2022-10-16T13:05:30;95243.84;;;19.24;38.56
6425;BME280;12193;42.642;23.384;2022-10-16T13:08:15;95244.31;;;19.21;38.73
6425;BME280;12193;42.642;23.384;2022-10-16T13:10:59;95243.03;;;19.24;39.05
6425;BME280;12193;42.642;23.384;2022-10-16T13:13:44;95252.69;;;19.07;39.17
6425;BME280;12193;42.642;23.384;2022-10-16T13:16:24;95252.69;;;19.46;38.24
6425;BME280;12193;42.642;23.384;2022-10-16T13:19:08;95253.94;;;19.44;38.88
6425;BME280;12193;42.642;23.384;2022-10-16T13:21:46;95251.28;;;19.72;37.33
6425;BME280;12193;42.642;23.384;2022-10-16T13:24:30;95247.19;;;19.81;37.33
6425;BME280;12193;42.642;23.384;2022-10-16T13:27:09;95249.03;;;19.64;38.51
6425;BME280;12193;42.642;23.384;2022-10-16T13:29:42;95241.69;;;19.38;38.63
6425;BME280;12193;42.642;23.384;2022-10-16T13:32:15;95243.53;;;19.37;38.31
6425;BME280;12193;42.642;23.384;2022-10-16T13:34:46;95241.75;;;19.26;38.09
6425;BME280;12193;42.642;23.384;2022-10-16T13:37:18;95248.38;;;19.57;37.54
6425;BME280;12193;42.642;23.384;2022-10-16T13:39:48;95250.59;;;19.48;37.95
6425;BME280;12193;42.642;23.384;2022-10-16T13:42:23;95256.91;;;19.47;37.48
6425;BME280;12193;42.642;23.384;2022-10-16T13:44:54;95253.25;;;19.65;37.47
6425;BME280;12193;42.642;23.384;2022-10-16T13:47:28;95252.38;;;19.59;38.04
6425;BME280;12193;42.642;23.384;2022-10-16T13:50:00;95242.31;;;19.56;37.74
6425;BME280;12193;42.642;23.384;2022-10-16T13:52:30;95259.63;;;19.36;38.37
6425;BME280;12193;42.642;23.384;2022-10-16T13:54:59;95258.91;;;19.40;38.38
6425;BME280;12193;42.642;23.384;2022-10-16T13:57:29;95261.63;;;19.17;38.82
6425;BME280;12193;42.642;23.384;2022-10-16T13:59:58;95252.69;;;19.18;38.70
6425;BME280;12193;42.642;23.384;2022-10-16T14:02:33;95261.25;;;18.75;39.37
6425;BME280;12193;42.642;23.384;2022-10-16T14:05:04;95261.81;;;18.65;39.69
6425;BME280;12193;42.642;23.384;2022-10-16T14:07:37;95267.81;;;18.49;40.24
6425;BME280;12193;42.642;23.384;2022-10-16T14:10:21;95269.16;;;18.52;39.86
6425;BME280;12193;42.642;23.384;2022-10-16T14:12:56;95271.91;;;18.57;39.78
6425;BME280;12193;42.642;23.384;2022-10-16T14:15:26;95269.25;;;18.68;39.16
6425;BME280;12193;42.642;23.384;2022-10-16T14:17:58;95269.03;;;18.47;39.30
6425;BME280;12193;42.642;23.384;2022-10-16T14:20:29;95281.31;;;18.41;40.07
6425;BME280;12193;42.642;23.384;2022-10-16T14:23:01;95278.47;;;18.31;39.54
6425;BME280;12193;42.642;23.384;2022-10-16T14:25:32;95279.59;;;18.24;39.20
6425;BME280;12193;42.642;23.384;2022-10-16T14:28:04;95278.63;;;18.18;39.82
6425;BME280;12193;42.642;23.384;2022-10-16T14:30:35;95281.94;;;18.14;39.76
6425;BME280;12193;42.642;23.384;2022-10-16T14:33:21;95285.38;;;18.03;40.38
6425;BME280;12193;42.642;23.384;2022-10-16T14:36:03;95286.78;;;17.65;40.80
6425;BME280;12193;42.642;23.384;2022-10-16T14:38:33;95283.25;;;17.71;40.88
6425;BME280;12193;42.642;23.384;2022-10-16T14:41:03;95279.81;;;17.70;41.22
6425;BME280;12193;42.642;23.384;2022-10-16T14:43:34;95290.66;;;17.62;41.28
6425;BME280;12193;42.642;23.384;2022-10-16T14:46:09;95277.94;;;17.48;40.98
6425;BME280;12193;42.642;23.384;2022-10-16T14:48:44;95286.78;;;17.35;41.35
6425;BME280;12193;42.642;23.384;2022-10-16T14:51:15;95289.34;;;17.24;41.79
6425;BME280;12193;42.642;23.384;2022-10-16T14:53:44;95294.44;;;17.19;42.12
6425;BME280;12193;42.642;23.384;2022-10-16T14:56:17;95299.44;;;17.09;42.36
6425;BME280;12193;42.642;23.384;2022-10-16T14:58:47;95301.19;;;16.97;42.58
6425;BME280;12193;42.642;23.384;2022-10-16T15:01:17;95295.50;;;16.82;42.95
6425;BME280;12193;42.642;23.384;2022-10-16T15:03:49;95309.94;;;16.73;43.14
6425;BME280;12193;42.642;23.384;2022-10-16T15:06:18;95310.16;;;16.54;44.06
6425;BME280;12193;42.642;23.384;2022-10-16T15:08:48;95309.69;;;16.39;44.60
6425;BME280;12193;42.642;23.384;2022-10-16T15:11:18;95313.41;;;16.25;45.69
6425;BME280;12193;42.642;23.384;2022-10-16T15:13:48;95307.09;;;16.08;46.27
6425;BME280;12193;42.642;23.384;2022-10-16T15:16:17;95309.06;;;15.88;47.26
6425;BME280;12193;42.642;23.384;2022-10-16T15:18:49;95310.38;;;15.79;47.89
6425;BME280;12193;42.642;23.384;2022-10-16T15:21:22;95311.94;;;15.80;48.49
6425;BME280;12193;42.642;23.384;2022-10-16T15:23:53;95327.22;;;15.59;49.03
6425;BME280;12193;42.642;23.384;2022-10-16T15:26:23;95318.38;;;15.53;49.05
6425;BME280;12193;42.642;23.384;2022-10-16T15:28:52;95318.06;;;15.37;50.45
6425;BME280;12193;42.642;23.384;2022-10-16T15:31:21;95332.25;;;15.16;50.67
6425;BME280;12193;42.642;23.384;2022-10-16T15:33:54;95327.63;;;15.12;52.11
6425;BME280;12193;42.642;23.384;2022-10-16T15:36:32;95341.56;;;15.06;52.13
6425;BME280;12193;42.642;23.384;2022-10-16T15:39:02;95334.53;;;15.00;51.76
6425;BME280;12193;42.642;23.384;2022-10-16T15:41:32;95341.66;;;14.80;52.57
6425;BME280;12193;42.642;23.384;2022-10-16T15:44:01;95348.50;;;14.68;53.51
6425;BME280;12193;42.642;23.384;2022-10-16T15:46:30;95352.97;;;14.61;54.24
6425;BME280;12193;42.642;23.384;2022-10-16T15:49:03;95348.75;;;14.47;54.97
6425;BME280;12193;42.642;23.384;2022-10-16T15:51:33;95357.00;;;14.38;54.88
6425;BME280;12193;42.642;23.384;2022-10-16T15:54:02;95356.59;;;14.34;54.88
6425;BME280;12193;42.642;23.384;2022-10-16T15:56:31;95367.09;;;14.28;55.10
6425;BME280;12193;42.642;23.384;2022-10-16T15:59:03;95367.44;;;14.63;54.82
6425;BME280;12193;42.642;23.384;2022-10-16T16:01:33;95373.28;;;14.59;54.88
6425;BME280;12193;42.642;23.384;2022-10-16T16:04:05;95374.91;;;14.60;55.77
6425;BME280;12193;42.642;23.384;2022-10-16T16:06:35;95377.13;;;14.37;55.74
6425;BME280;12193;42.642;23.384;2022-10-16T16:09:10;95379.56;;;14.19;55.81
6425;BME280;12193;42.642;23.384;2022-10-16T16:11:40;95387.19;;;14.40;56.12
6425;BME280;12193;42.642;23.384;2022-10-16T16:14:11;95379.34;;;14.47;55.89
6425;BME280;12193;42.642;23.384;2022-10-16T16:16:41;95391.63;;;14.46;56.17
6425;BME280;12193;42.642;23.384;2022-10-16T16:19:13;95390.41;;;14.49;57.55
6425;BME280;12193;42.642;23.384;2022-10-16T16:21:47;95391.19;;;14.17;57.60
6425;BME280;12193;42.642;23.384;2022-10-16T16:24:16;95391.78;;;13.99;58.05
6425;BME280;12193;42.642;23.384;2022-10-16T16:26:46;95400.00;;;13.90;58.73
6425;BME280;12193;42.642;23.384;2022-10-16T16:29:16;95404.69;;;14.20;58.37
6425;BME280;12193;42.642;23.384;2022-10-16T16:31:45;95405.69;;;14.32;57.78
6425;BME280;12193;42.642;23.384;2022-10-16T16:34:17;95407.91;;;14.29;58.26
6425;BME280;12193;42.642;23.384;2022-10-16T16:36:46;95413.75;;;14.24;58.25
6425;BME280;12193;42.642;23.384;2022-10-16T16:39:16;95413.34;;;14.14;58.46
6425;BME280;12193;42.642;23.384;2022-10-16T16:41:45;95417.94;;;14.12;57.86
6425;BME280;12193;42.642;23.384;2022-10-16T16:44:16;95424.16;;;13.92;58.45
6425;BME280;12193;42.642;23.384;2022-10-16T16:46:45;95427.69;;;13.71;58.72
6425;BME280;12193;42.642;23.384;2022-10-16T16:49:17;95434.13;;;13.62;59.12
6425;BME280;12193;42.642;23.384;2022-10-16T16:51:47;95444.34;;;13.57;58.34
6425;BME280;12193;42.642;23.384;2022-10-16T16:54:17;95448.00;;;13.69;62.59
6425;BME280;12193;42.642;23.384;2022-10-16T16:56:46;95456.13;;;13.34;61.68
6425;BME280;12193;42.642;23.384;2022-10-16T16:59:17;95454.03;;;13.23;60.15
6425;BME280;12193;42.642;23.384;2022-10-16T17:01:48;95460.44;;;13.14;60.18
6425;BME280;12193;42.642;23.384;2022-10-16T17:04:20;95459.59;;;13.14;60.14
6425;BME280;12193;42.642;23.384;2022-10-16T17:06:49;95455.75;;;13.10;60.17
6425;BME280;12193;42.642;23.384;2022-10-16T17:09:19;95460.31;;;12.95;60.59
6425;BME280;12193;42.642;23.384;2022-10-16T17:11:48;95468.03;;;12.82;61.50
6425;BME280;12193;42.642;23.384;2022-10-16T17:14:17;95467.50;;;12.65;62.30
6425;BME280;12193;42.642;23.384;2022-10-16T17:16:46;95469.16;;;12.45;63.25
6425;BME280;12193;42.642;23.384;2022-10-16T17:19:17;95474.69;;;12.36;63.59
6425;BME280;12193;42.642;23.384;2022-10-16T17:21:50;95469.09;;;12.39;63.14
6425;BME280;12193;42.642;23.384;2022-10-16T17:24:20;95470.75;;;12.46;62.96
6425;BME280;12193;42.642;23.384;2022-10-16T17:26:50;95467.19;;;12.54;62.70
6425;BME280;12193;42.642;23.384;2022-10-16T17:29:19;95466.00;;;12.56;62.39
6425;BME280;12193;42.642;23.384;2022-10-16T17:31:48;95472.22;;;12.55;62.63
6425;BME280;12193;42.642;23.384;2022-10-16T17:34:17;95469.16;;;12.45;62.48
6425;BME280;12193;42.642;23.384;2022-10-16T17:36:46;95470.03;;;12.32;62.93
6425;BME280;12193;42.642;23.384;2022-10-16T17:39:18;95483.59;;;12.06;64.66